createdAt,value
2023-05-02T00:00:24.187Z,100368.59
2023-05-02T00:01:48.697Z,100369.06
2023-05-02T00:03:10.705Z,100372.38
2023-05-02T00:04:33.660Z,100362.59
2023-05-02T00:05:56.586Z,100361.00
2023-05-02T00:07:18.415Z,100362.50
2023-05-02T00:08:41.279Z,100366.41
2023-05-02T00:10:04.208Z,100368.91
2023-05-02T00:11:26.210Z,100367.25
2023-05-02T00:12:49.001Z,100369.13
2023-05-02T00:14:11.766Z,100371.19
2023-05-02T00:15:33.634Z,100363.00
2023-05-02T00:16:57.808Z,100359.75
2023-05-02T00:18:20.628Z,100364.19
2023-05-02T00:19:42.491Z,100366.38
2023-05-02T00:21:05.671Z,100362.88
2023-05-02T00:22:28.333Z,100362.59
2023-05-02T00:23:52.097Z,100362.78
2023-05-02T00:25:16.242Z,100358.00
2023-05-02T00:26:39.053Z,100367.88
2023-05-02T00:28:02.344Z,100362.78
2023-05-02T00:29:25.073Z,100361.44
2023-05-02T00:30:48.015Z,100360.59
2023-05-02T00:32:11.750Z,100365.50
2023-05-02T00:33:34.584Z,100363.31
2023-05-02T00:34:56.496Z,100363.81
2023-05-02T00:36:20.968Z,100359.56
2023-05-02T00:37:43.743Z,100359.53
2023-05-02T00:39:05.713Z,100368.56
2023-05-02T00:40:28.497Z,100361.19
2023-05-02T00:41:56.132Z,100363.16
2023-05-02T00:43:19.079Z,100361.81
2023-05-02T00:44:40.891Z,100367.00
2023-05-02T00:46:04.902Z,100362.91
2023-05-02T00:47:29.357Z,100353.91
2023-05-02T00:48:51.306Z,100367.75
2023-05-02T00:50:14.204Z,100366.41
2023-05-02T00:51:36.283Z,100365.09
2023-05-02T00:53:01.883Z,100364.78
2023-05-02T00:54:24.659Z,100358.00
2023-05-02T00:55:49.492Z,100354.47
2023-05-02T00:57:11.385Z,100360.69
2023-05-02T00:58:34.583Z,100360.09
2023-05-02T00:59:58.313Z,100357.38
2023-05-02T01:01:34.366Z,100360.63
2023-05-02T01:03:11.378Z,100365.81
2023-05-02T01:04:44.264Z,100368.91
2023-05-02T01:06:18.158Z,100366.75
2023-05-02T01:07:54.749Z,100357.25
2023-05-02T01:09:26.530Z,100371.91
2023-05-02T01:10:53.621Z,100366.56
2023-05-02T01:12:27.973Z,100367.50
2023-05-02T01:13:54.381Z,100376.03
2023-05-02T01:15:19.199Z,100375.34
2023-05-02T01:16:44.808Z,100375.41
2023-05-02T01:18:12.244Z,100384.09
2023-05-02T01:19:36.577Z,100374.78
2023-05-02T01:21:02.547Z,100386.50
2023-05-02T01:22:26.617Z,100384.09
2023-05-02T01:23:58.586Z,100388.81
2023-05-02T01:25:30.912Z,100392.22
2023-05-02T01:27:08.007Z,100389.09
2023-05-02T01:28:41.125Z,100393.22
2023-05-02T01:30:07.953Z,100390.63
2023-05-02T01:31:35.395Z,100394.97
2023-05-02T01:32:39.395Z,100381.38
2023-05-02T01:33:46.428Z,100395.31
2023-05-02T01:34:49.834Z,100397.41
2023-05-02T01:35:54.129Z,100395.09
2023-05-02T01:36:58.750Z,100402.28
2023-05-02T01:38:03.354Z,100405.03
2023-05-02T01:39:07.508Z,100406.53
2023-05-02T01:40:12.326Z,100408.66
2023-05-02T01:41:14.976Z,100408.69
2023-05-02T01:42:20.665Z,100408.06
2023-05-02T01:43:25.444Z,100418.38
2023-05-02T01:44:30.176Z,100411.53
2023-05-02T01:45:37.429Z,100414.06
2023-05-02T01:46:43.703Z,100411.63
2023-05-02T01:47:47.389Z,100416.34
2023-05-02T01:48:52.412Z,100414.53
2023-05-02T01:49:55.171Z,100417.00
2023-05-02T01:50:58.532Z,100414.78
2023-05-02T01:52:04.561Z,100421.31
2023-05-02T01:53:11.264Z,100409.56
2023-05-02T01:54:15.864Z,100420.97
2023-05-02T01:55:18.349Z,100428.94
2023-05-02T01:56:22.287Z,100434.25
2023-05-02T01:57:24.471Z,100424.75
2023-05-02T01:58:30.357Z,100428.13
2023-05-02T01:59:34.038Z,100428.81
2023-05-02T02:00:39.087Z,100425.66
2023-05-02T02:01:43.606Z,100432.72
2023-05-02T02:02:48.090Z,100427.78
2023-05-02T02:03:50.094Z,100432.75
2023-05-02T02:04:55.891Z,100428.63
2023-05-02T02:05:59.500Z,100436.53
2023-05-02T02:07:05.201Z,100434.19
2023-05-02T02:08:08.016Z,100444.03
2023-05-02T02:09:11.119Z,100442.44
2023-05-02T02:10:14.179Z,100438.81
2023-05-02T02:11:20.864Z,100436.31
2023-05-02T02:12:27.016Z,100443.78
2023-05-02T02:13:34.396Z,100443.66
2023-05-02T02:14:39.706Z,100454.00
2023-05-02T02:15:47.132Z,100453.47
2023-05-02T02:16:54.746Z,100459.53
2023-05-02T02:18:00.334Z,100457.09
2023-05-02T02:19:08.342Z,100462.66
2023-05-02T02:20:13.597Z,100465.75
2023-05-02T02:21:19.098Z,100458.81
2023-05-02T02:22:24.468Z,100464.31
2023-05-02T02:23:30.145Z,100467.44
2023-05-02T02:24:34.291Z,100464.19
2023-05-02T02:25:38.482Z,100458.53
2023-05-02T02:26:41.358Z,100466.63
2023-05-02T02:27:43.434Z,100460.25
2023-05-02T02:28:46.550Z,100465.06
2023-05-02T02:29:48.364Z,100469.34
2023-05-02T02:30:52.575Z,100472.69
2023-05-02T02:31:54.553Z,100474.31
2023-05-02T02:32:57.427Z,100470.72
2023-05-02T02:33:59.694Z,100468.41
2023-05-02T02:35:03.976Z,100470.94
2023-05-02T02:36:11.907Z,100479.56
2023-05-02T02:37:19.149Z,100472.09
2023-05-02T02:38:31.783Z,100474.66
2023-05-02T02:39:45.420Z,100481.81
2023-05-02T02:40:54.524Z,100475.94
2023-05-02T02:42:04.229Z,100479.50
2023-05-02T02:43:12.855Z,100483.38
2023-05-02T02:44:28.524Z,100485.47
2023-05-02T02:45:35.403Z,100479.41
2023-05-02T02:46:49.024Z,100489.03
2023-05-02T02:47:58.355Z,100486.19
2023-05-02T02:49:15.178Z,100474.63
2023-05-02T02:50:23.537Z,100481.63
2023-05-02T02:51:31.850Z,100478.91
2023-05-02T02:52:40.330Z,100486.94
2023-05-02T02:53:51.724Z,100478.72
2023-05-02T02:54:59.264Z,100481.56
2023-05-02T02:56:05.110Z,100477.72
2023-05-02T02:57:17.278Z,100484.09
2023-05-02T02:58:30.661Z,100483.84
2023-05-02T02:59:35.301Z,100484.59
2023-05-02T03:00:38.405Z,100490.84
2023-05-02T03:01:46.858Z,100491.50
2023-05-02T03:02:49.851Z,100491.88
2023-05-02T03:03:53.444Z,100492.34
2023-05-02T03:04:57.100Z,100493.31
2023-05-02T03:05:59.436Z,100486.31
2023-05-02T03:07:02.168Z,100481.03
2023-05-02T03:08:03.959Z,100488.88
2023-05-02T03:09:06.450Z,100490.00
2023-05-02T03:10:08.245Z,100483.28
2023-05-02T03:11:10.919Z,100494.09
2023-05-02T03:12:12.678Z,100487.00
2023-05-02T03:13:15.131Z,100483.50
2023-05-02T03:14:16.634Z,100490.81
2023-05-02T03:15:47.763Z,100485.88
2023-05-02T03:16:50.946Z,100488.94
2023-05-02T03:17:53.432Z,100488.56
2023-05-02T03:18:54.964Z,100491.94
2023-05-02T03:19:58.132Z,100492.38
2023-05-02T03:20:59.781Z,100494.75
2023-05-02T03:22:02.236Z,100503.34
2023-05-02T03:23:03.754Z,100502.66
2023-05-02T03:24:06.788Z,100514.69
2023-05-02T03:25:09.064Z,100513.63
2023-05-02T03:26:11.958Z,100516.09
2023-05-02T03:27:13.713Z,100523.06
2023-05-02T03:28:16.119Z,100520.66
2023-05-02T03:29:17.716Z,100518.69
2023-05-02T03:30:20.482Z,100522.00
2023-05-02T03:31:25.407Z,100525.38
2023-05-02T03:32:30.109Z,100521.66
2023-05-02T03:33:32.592Z,100529.69
2023-05-02T03:34:34.997Z,100523.19
2023-05-02T03:35:36.519Z,100529.31
2023-05-02T03:36:39.262Z,100529.84
2023-05-02T03:37:40.753Z,100524.03
2023-05-02T03:38:43.419Z,100535.84
2023-05-02T03:39:44.929Z,100532.16
2023-05-02T03:40:47.352Z,100541.81
2023-05-02T03:41:48.937Z,100537.38
2023-05-02T03:42:51.380Z,100529.31
2023-05-02T03:43:52.876Z,100537.13
2023-05-02T03:44:55.606Z,100540.28
2023-05-02T03:45:57.820Z,100534.72
2023-05-02T03:47:00.472Z,100532.84
2023-05-02T03:48:03.540Z,100537.69
2023-05-02T03:49:05.988Z,100529.53
2023-05-02T03:50:08.386Z,100537.38
2023-05-02T03:51:10.808Z,100535.13
2023-05-02T03:52:12.327Z,100538.25
2023-05-02T03:53:16.149Z,100543.38
2023-05-02T03:54:19.053Z,100537.53
2023-05-02T03:55:21.336Z,100544.78
2023-05-02T03:56:24.292Z,100543.69
2023-05-02T03:57:25.818Z,100536.19
2023-05-02T03:58:28.572Z,100538.03
2023-05-02T03:59:32.870Z,100540.63
2023-05-02T04:00:35.419Z,100549.16
2023-05-02T04:01:36.926Z,100549.63
2023-05-02T04:02:39.837Z,100555.97
2023-05-02T04:03:43.057Z,100547.53
2023-05-02T04:04:45.712Z,100557.03
2023-05-02T04:05:47.480Z,100561.44
2023-05-02T04:06:49.944Z,100562.50
2023-05-02T04:07:51.532Z,100566.53
2023-05-02T04:08:54.006Z,100564.88
2023-05-02T04:09:55.548Z,100566.47
2023-05-02T04:10:58.004Z,100574.81
2023-05-02T04:11:59.736Z,100575.88
2023-05-02T04:13:03.124Z,100578.69
2023-05-02T04:14:07.693Z,100586.84
2023-05-02T04:15:11.455Z,100589.34
2023-05-02T04:16:13.351Z,100582.53
2023-05-02T04:17:16.462Z,100586.47
2023-05-02T04:18:18.417Z,100584.91
2023-05-02T04:19:22.537Z,100586.53
2023-05-02T04:20:24.551Z,100590.66
2023-05-02T04:21:27.592Z,100588.44
2023-05-02T04:22:29.429Z,100583.81
2023-05-02T04:23:32.256Z,100587.59
2023-05-02T04:24:34.276Z,100596.03
2023-05-02T04:25:37.234Z,100592.25
2023-05-02T04:26:39.173Z,100592.19
2023-05-02T04:27:41.999Z,100590.50
2023-05-02T04:28:44.003Z,100589.44
2023-05-02T04:29:49.142Z,100595.19
2023-05-02T04:30:52.478Z,100596.84
2023-05-02T04:31:54.411Z,100595.72
2023-05-02T04:32:57.841Z,100602.28
2023-05-02T04:33:59.792Z,100602.22
2023-05-02T04:35:04.351Z,100601.69
2023-05-02T04:36:06.958Z,100600.94
2023-05-02T04:37:09.822Z,100603.25
2023-05-02T04:38:12.628Z,100604.25
2023-05-02T04:39:14.469Z,100608.31
2023-05-02T04:40:17.219Z,100611.59
2023-05-02T04:41:19.061Z,100613.47
2023-05-02T04:42:21.940Z,100612.84
2023-05-02T04:43:24.970Z,100617.03
2023-05-02T04:44:27.104Z,100617.06
2023-05-02T04:45:30.089Z,100631.75
2023-05-02T04:46:31.931Z,100617.31
2023-05-02T04:47:34.767Z,100618.09
2023-05-02T04:48:41.917Z,100627.66
2023-05-02T04:49:43.843Z,100624.94
2023-05-02T04:50:48.564Z,100630.72
2023-05-02T04:51:52.024Z,100637.78
2023-05-02T04:52:54.887Z,100634.53
2023-05-02T04:53:56.657Z,100631.19
2023-05-02T04:54:59.508Z,100633.88
2023-05-02T04:56:01.627Z,100634.97
2023-05-02T04:57:06.849Z,100638.25
2023-05-02T04:58:09.579Z,100633.41
2023-05-02T04:59:12.703Z,100634.22
2023-05-02T05:00:15.579Z,100642.13
2023-05-02T05:01:18.494Z,100632.03
2023-05-02T05:02:20.405Z,100636.44
2023-05-02T05:03:23.371Z,100642.97
2023-05-02T05:04:25.295Z,100644.59
2023-05-02T05:05:28.200Z,100642.69
2023-05-02T05:06:32.066Z,100650.34
2023-05-02T05:07:34.981Z,100645.66
2023-05-02T05:08:36.958Z,100652.25
2023-05-02T05:09:39.829Z,100653.34
2023-05-02T05:10:41.640Z,100663.41
2023-05-02T05:11:46.172Z,100659.59
2023-05-02T05:12:49.320Z,100667.50
2023-05-02T05:13:52.038Z,100663.69
2023-05-02T05:14:53.863Z,100666.16
2023-05-02T05:15:56.607Z,100660.41
2023-05-02T05:16:58.638Z,100668.88
2023-05-02T05:18:01.797Z,100670.22
2023-05-02T05:19:04.310Z,100671.84
2023-05-02T05:20:09.592Z,100677.81
2023-05-02T05:21:11.488Z,100678.59
2023-05-02T05:22:15.594Z,100683.50
2023-05-02T05:23:18.031Z,100680.47
2023-05-02T05:24:20.774Z,100684.25
2023-05-02T05:25:22.783Z,100681.34
2023-05-02T05:26:26.821Z,100680.44
2023-05-02T05:27:29.589Z,100690.09
2023-05-02T05:28:31.545Z,100683.81
2023-05-02T05:29:34.280Z,100686.88
2023-05-02T05:30:37.082Z,100692.56
2023-05-02T05:31:39.129Z,100688.38
2023-05-02T05:32:41.994Z,100687.41
2023-05-02T05:33:44.234Z,100690.44
2023-05-02T05:34:47.128Z,100701.69
2023-05-02T05:35:48.973Z,100706.06
2023-05-02T05:36:51.954Z,100710.50
2023-05-02T05:37:55.313Z,100705.03
2023-05-02T05:38:58.166Z,100707.91
2023-05-02T05:40:00.239Z,100707.00
2023-05-02T05:41:04.973Z,100709.72
2023-05-02T05:42:07.501Z,100709.59
2023-05-02T05:43:10.268Z,100708.94
2023-05-02T05:44:12.062Z,100708.16
2023-05-02T05:45:16.405Z,100709.94
2023-05-02T05:46:19.134Z,100710.91
2023-05-02T05:47:22.054Z,100716.81
2023-05-02T05:48:25.258Z,100717.91
2023-05-02T05:49:27.205Z,100721.91
2023-05-02T05:50:30.083Z,100726.03
2023-05-02T05:51:32.861Z,100723.81
2023-05-02T05:52:34.787Z,100728.22
2023-05-02T05:53:38.908Z,100724.22
2023-05-02T05:54:40.925Z,100728.88
2023-05-02T05:55:43.731Z,100744.84
2023-05-02T05:56:45.856Z,100741.09
2023-05-02T05:57:48.638Z,100745.47
2023-05-02T05:58:50.578Z,100738.03
2023-05-02T05:59:53.368Z,100741.22
2023-05-02T06:00:55.199Z,100743.81
2023-05-02T06:01:59.469Z,100746.56
2023-05-02T06:03:01.652Z,100746.25
2023-05-02T06:04:05.119Z,100742.91
2023-05-02T06:05:07.724Z,100740.47
2023-05-02T06:06:10.611Z,100748.34
2023-05-02T06:07:12.509Z,100747.59
2023-05-02T06:08:15.246Z,100747.31
2023-05-02T06:09:18.357Z,100753.50
2023-05-02T06:10:21.169Z,100757.34
2023-05-02T06:11:24.394Z,100757.75
2023-05-02T06:12:27.135Z,100759.34
2023-05-02T06:13:28.918Z,100761.88
2023-05-02T06:14:31.962Z,100766.00
2023-05-02T06:15:34.455Z,100764.97
2023-05-02T06:16:37.360Z,100761.03
2023-05-02T06:17:39.263Z,100762.69
2023-05-02T06:18:42.115Z,100767.91
2023-05-02T06:19:43.968Z,100765.50
2023-05-02T06:20:46.693Z,100767.81
2023-05-02T06:22:51.391Z,100771.34
2023-05-02T06:23:53.501Z,100774.44
2023-05-02T06:24:57.827Z,100771.25
2023-05-02T06:26:00.738Z,100780.91
2023-05-02T06:27:03.571Z,100780.91
2023-05-02T06:28:05.771Z,100771.50
2023-05-02T06:29:08.528Z,100776.91
2023-05-02T06:30:10.913Z,100778.31
2023-05-02T06:31:13.688Z,100777.59
2023-05-02T06:32:15.954Z,100780.78
2023-05-02T06:33:18.783Z,100784.38
2023-05-02T06:34:21.766Z,100787.00
2023-05-02T06:35:23.628Z,100784.50
2023-05-02T06:36:27.599Z,100788.69
2023-05-02T06:37:33.668Z,100791.97
2023-05-02T06:38:36.585Z,100793.53
2023-05-02T06:39:38.476Z,100795.31
2023-05-02T06:40:45.229Z,100795.41
2023-05-02T06:41:48.512Z,100793.19
2023-05-02T06:42:51.381Z,100792.75
2023-05-02T06:43:54.133Z,100794.16
2023-05-02T06:44:57.151Z,100797.03
2023-05-02T06:45:59.930Z,100787.31
2023-05-02T06:47:01.863Z,100797.97
2023-05-02T06:48:05.134Z,100803.66
2023-05-02T06:49:07.946Z,100803.00
2023-05-02T06:50:11.904Z,100806.72
2023-05-02T06:51:14.946Z,100807.47
2023-05-02T06:52:17.788Z,100803.44
2023-05-02T06:53:20.814Z,100811.25
2023-05-02T06:54:22.786Z,100811.75
2023-05-02T06:55:25.739Z,100815.75
2023-05-02T06:56:28.937Z,100817.81
2023-05-02T06:57:31.959Z,100818.44
2023-05-02T06:58:34.780Z,100822.81
2023-05-02T06:59:36.700Z,100830.78
2023-05-02T07:00:39.549Z,100826.91
2023-05-02T07:01:42.393Z,100826.91
2023-05-02T07:02:46.839Z,100828.34
2023-05-02T07:03:49.966Z,100836.44
2023-05-02T07:04:51.883Z,100824.75
2023-05-02T07:05:54.608Z,100834.69
2023-05-02T07:06:56.483Z,100833.91
2023-05-02T07:07:59.525Z,100835.13
2023-05-02T07:09:01.390Z,100834.09
2023-05-02T07:10:04.523Z,100836.16
2023-05-02T07:11:06.381Z,100843.34
2023-05-02T07:12:10.524Z,100843.22
2023-05-02T07:13:12.546Z,100841.59
2023-05-02T07:14:15.463Z,100836.75
2023-05-02T07:15:18.328Z,100841.28
2023-05-02T07:16:20.265Z,100843.94
2023-05-02T07:17:23.555Z,100848.84
2023-05-02T07:18:25.753Z,100853.28
2023-05-02T07:19:28.529Z,100853.16
2023-05-02T07:20:30.388Z,100859.97
2023-05-02T07:21:33.632Z,100858.72
2023-05-02T07:22:35.459Z,100850.03
2023-05-02T07:23:38.352Z,100856.31
2023-05-02T07:24:40.689Z,100859.44
2023-05-02T07:25:43.504Z,100864.78
2023-05-02T07:26:45.726Z,100868.44
2023-05-02T07:27:49.815Z,100867.41
2023-05-02T07:28:51.701Z,100872.63
2023-05-02T07:29:54.483Z,100875.38
2023-05-02T07:30:56.402Z,100879.41
2023-05-02T07:31:59.138Z,100874.03
2023-05-02T07:33:01.294Z,100878.50
2023-05-02T07:34:04.106Z,100868.94
2023-05-02T07:35:07.322Z,100874.28
2023-05-02T07:36:10.129Z,100871.56
2023-05-02T07:37:12.093Z,100866.06
2023-05-02T07:38:15.440Z,100878.53
2023-05-02T07:39:17.524Z,100873.91
2023-05-02T07:40:20.776Z,100878.88
2023-05-02T07:41:23.573Z,100883.94
2023-05-02T07:42:29.008Z,100887.88
2023-05-02T07:43:33.981Z,100892.47
2023-05-02T07:44:36.841Z,100899.66
2023-05-02T07:45:39.632Z,100899.25
2023-05-02T07:46:42.096Z,100897.31
2023-05-02T07:47:44.959Z,100901.16
2023-05-02T07:48:47.936Z,100905.59
2023-05-02T07:49:52.247Z,100906.06
2023-05-02T07:50:55.025Z,100898.47
2023-05-02T07:51:57.992Z,100912.66
2023-05-02T07:53:00.744Z,100899.97
2023-05-02T07:54:03.889Z,100913.94
2023-05-02T07:55:07.564Z,100914.16
2023-05-02T07:56:10.296Z,100921.59
2023-05-02T07:57:12.534Z,100906.50
2023-05-02T07:58:15.280Z,100920.94
2023-05-02T07:59:18.664Z,100916.72
2023-05-02T08:00:21.563Z,100922.19
2023-05-02T08:01:23.374Z,100923.00
2023-05-02T08:02:26.380Z,100923.59
2023-05-02T08:03:29.540Z,100928.94
2023-05-02T08:04:32.550Z,100920.09
2023-05-02T08:05:35.395Z,100919.66
2023-05-02T08:06:38.474Z,100923.38
2023-05-02T08:07:41.288Z,100923.28
2023-05-02T08:08:43.164Z,100925.66
2023-05-02T08:09:46.310Z,100927.22
2023-05-02T08:10:51.240Z,100933.78
2023-05-02T08:11:54.012Z,100931.59
2023-05-02T08:12:56.952Z,100939.56
2023-05-02T08:14:00.288Z,100938.38
2023-05-02T08:15:07.970Z,100933.72
2023-05-02T08:16:11.366Z,100931.16
2023-05-02T08:17:13.269Z,100940.16
2023-05-02T08:18:16.318Z,100943.09
2023-05-02T08:19:18.122Z,100946.88
2023-05-02T08:20:22.378Z,100941.28
2023-05-02T08:21:25.314Z,100944.53
2023-05-02T08:22:28.113Z,100943.69
2023-05-02T08:23:31.346Z,100943.31
2023-05-02T08:24:34.242Z,100947.16
2023-05-02T08:25:37.100Z,100940.44
2023-05-02T08:26:39.002Z,100946.44
2023-05-02T08:27:41.735Z,100939.00
2023-05-02T08:28:44.571Z,100949.03
2023-05-02T08:29:47.383Z,100952.16
2023-05-02T08:30:51.482Z,100951.41
2023-05-02T08:31:53.254Z,100946.72
2023-05-02T08:32:56.017Z,100954.97
2023-05-02T08:33:58.859Z,100953.59
2023-05-02T08:35:02.556Z,100958.22
2023-05-02T08:36:11.946Z,100950.66
2023-05-02T08:37:13.794Z,100956.16
2023-05-02T08:38:16.676Z,100957.38
2023-05-02T08:39:19.531Z,100958.91
2023-05-02T08:40:34.001Z,100956.06
2023-05-02T08:41:44.889Z,100953.69
2023-05-02T08:42:48.498Z,100949.25
2023-05-02T08:43:51.288Z,100946.59
2023-05-02T08:44:53.304Z,100952.47
2023-05-02T08:46:00.803Z,100957.66
2023-05-02T08:47:04.211Z,100956.69
2023-05-02T08:48:10.359Z,100961.31
2023-05-02T08:49:16.553Z,100954.78
2023-05-02T08:50:19.107Z,100959.56
2023-05-02T08:51:24.322Z,100959.63
2023-05-02T08:52:26.941Z,100954.81
2023-05-02T08:53:32.851Z,100957.97
2023-05-02T08:54:38.693Z,100963.00
2023-05-02T08:55:42.068Z,100962.38
2023-05-02T08:56:46.092Z,100965.59
2023-05-02T08:57:48.981Z,100965.38
2023-05-02T08:58:51.714Z,100970.34
2023-05-02T08:59:54.476Z,100975.09
2023-05-02T09:01:01.609Z,100973.91
2023-05-02T09:02:23.778Z,100977.47
2023-05-02T09:03:31.663Z,100981.94
2023-05-02T09:04:35.789Z,100981.78
2023-05-02T09:05:41.047Z,100982.91
2023-05-02T09:06:43.881Z,100983.31
2023-05-02T09:07:48.043Z,100990.25
2023-05-02T09:08:53.285Z,100990.53
2023-05-02T09:09:56.786Z,100992.97
2023-05-02T09:10:59.750Z,100989.00
2023-05-02T09:12:02.746Z,100990.84
2023-05-02T09:13:30.569Z,100988.38
2023-05-02T09:14:33.583Z,100992.38
2023-05-02T09:15:36.494Z,100997.44
2023-05-02T09:16:40.907Z,100996.66
2023-05-02T09:17:44.271Z,100997.63
2023-05-02T09:18:48.658Z,101002.94
2023-05-02T09:20:00.340Z,100998.72
2023-05-02T09:21:08.821Z,100993.03
2023-05-02T09:22:11.789Z,100996.63
2023-05-02T09:23:14.207Z,101002.00
2023-05-02T09:24:18.474Z,100999.78
2023-05-02T09:25:21.584Z,100998.47
2023-05-02T09:26:28.855Z,101006.91
2023-05-02T09:27:49.981Z,101003.81
2023-05-02T09:28:55.831Z,101007.06
2023-05-02T09:30:18.681Z,101003.41
2023-05-02T09:32:51.188Z,101002.47
2023-05-02T09:33:54.595Z,101006.41
2023-05-02T09:35:06.992Z,101006.66
2023-05-02T09:36:12.168Z,101006.97
2023-05-02T09:37:35.687Z,101003.66
2023-05-02T09:38:39.875Z,101010.44
2023-05-02T09:39:42.658Z,101000.34
2023-05-02T09:40:53.770Z,101003.00
2023-05-02T09:41:56.810Z,101006.38
2023-05-02T09:42:59.942Z,101007.19
2023-05-02T09:44:02.817Z,101006.50
2023-05-02T09:45:05.601Z,101007.50
2023-05-02T09:46:10.760Z,101005.25
2023-05-02T09:47:26.522Z,100998.97
2023-05-02T09:48:32.102Z,101007.09
2023-05-02T09:49:41.110Z,101007.38
2023-05-02T09:50:43.000Z,101007.09
2023-05-02T09:51:46.619Z,100994.59
2023-05-02T09:53:01.102Z,101004.28
2023-05-02T09:54:04.422Z,101005.25
2023-05-02T09:55:20.761Z,101012.50
2023-05-02T09:56:24.094Z,101003.81
2023-05-02T09:57:40.181Z,101000.91
2023-05-02T09:58:42.954Z,101004.06
2023-05-02T09:59:56.436Z,101009.56
2023-05-02T10:00:59.279Z,101017.28
2023-05-02T10:02:04.300Z,101006.47
2023-05-02T10:03:07.542Z,101006.31
2023-05-02T10:04:16.309Z,101007.13
2023-05-02T10:05:20.024Z,101010.91
2023-05-02T10:06:23.103Z,101007.91
2023-05-02T10:07:26.815Z,101006.69
2023-05-02T10:08:29.846Z,101005.69
2023-05-02T10:09:36.043Z,100993.78
2023-05-02T10:10:41.682Z,101009.06
2023-05-02T10:11:45.518Z,101005.91
2023-05-02T10:12:52.875Z,101012.91
2023-05-02T10:13:56.128Z,101011.91
2023-05-02T10:15:03.573Z,101013.00
2023-05-02T10:16:08.290Z,101021.00
2023-05-02T10:17:15.082Z,101013.47
2023-05-02T10:18:22.932Z,101017.22
2023-05-02T10:19:31.367Z,101022.56
2023-05-02T10:20:37.137Z,101021.78
2023-05-02T10:21:45.843Z,101020.56
2023-05-02T10:22:50.140Z,101025.72
2023-05-02T10:23:54.134Z,101015.72
2023-05-02T10:24:58.163Z,101016.31
2023-05-02T10:26:01.320Z,101016.91
2023-05-02T10:27:04.629Z,101017.38
2023-05-02T10:28:07.529Z,101013.81
2023-05-02T10:29:11.078Z,101026.22
2023-05-02T10:30:13.405Z,101024.41
2023-05-02T10:31:17.638Z,101023.22
2023-05-02T10:32:22.826Z,101025.28
2023-05-02T10:33:26.232Z,101023.47
2023-05-02T10:34:32.594Z,101033.09
2023-05-02T10:35:38.185Z,101036.00
2023-05-02T10:36:41.577Z,101030.34
2023-05-02T10:37:45.325Z,101033.91
2023-05-02T10:38:48.446Z,101028.13
2023-05-02T10:39:50.334Z,101021.69
2023-05-02T10:40:57.279Z,101023.22
2023-05-02T10:42:02.458Z,101020.22
2023-05-02T10:43:06.494Z,101017.09
2023-05-02T10:44:09.772Z,101017.84
2023-05-02T10:45:13.138Z,101019.91
2023-05-02T10:46:37.670Z,101016.09
2023-05-02T10:47:39.770Z,101013.53
2023-05-02T10:48:43.251Z,101023.03
2023-05-02T10:49:52.262Z,101021.91
2023-05-02T10:50:56.728Z,101016.38
2023-05-02T10:51:58.988Z,101014.66
2023-05-02T10:53:25.256Z,101018.09
2023-05-02T10:54:28.122Z,101009.13
2023-05-02T10:55:29.966Z,101010.41
2023-05-02T10:56:32.740Z,101014.66
2023-05-02T10:57:35.451Z,101010.88
2023-05-02T10:58:37.443Z,101005.09
2023-05-02T10:59:41.325Z,101010.09
2023-05-02T11:00:43.201Z,101004.78
2023-05-02T11:01:46.062Z,101007.41
2023-05-02T11:02:50.086Z,101003.91
2023-05-02T11:03:54.206Z,101007.31
2023-05-02T11:05:03.077Z,101008.03
2023-05-02T11:06:06.827Z,101014.25
2023-05-02T11:07:19.917Z,101010.09
2023-05-02T11:08:31.695Z,101010.09
2023-05-02T11:09:34.174Z,101014.09
2023-05-02T11:10:36.971Z,101013.72
2023-05-02T11:11:40.823Z,101019.59
2023-05-02T11:12:48.610Z,101024.47
2023-05-02T11:13:51.553Z,101024.03
2023-05-02T11:14:54.335Z,101019.09
2023-05-02T11:15:59.805Z,101022.91
2023-05-02T11:17:10.043Z,101018.72
2023-05-02T11:18:14.367Z,101014.69
2023-05-02T11:19:16.486Z,101016.88
2023-05-02T11:20:21.299Z,101027.13
2023-05-02T11:21:29.514Z,101017.78
2023-05-02T11:22:32.168Z,101022.97
2023-05-02T11:23:36.857Z,101023.69
2023-05-02T11:24:39.870Z,101023.59
2023-05-02T11:25:44.378Z,101028.16
2023-05-02T11:26:46.507Z,101030.31
2023-05-02T11:27:49.454Z,101021.59
2023-05-02T11:28:52.759Z,101030.13
2023-05-02T11:29:54.875Z,101036.06
2023-05-02T11:30:58.079Z,101040.47
2023-05-02T11:32:00.298Z,101048.00
2023-05-02T11:33:16.210Z,101043.53
2023-05-02T11:34:20.134Z,101054.25
2023-05-02T11:35:24.970Z,101053.78
2023-05-02T11:36:33.498Z,101057.66
2023-05-02T11:37:36.598Z,101059.63
2023-05-02T11:38:40.148Z,101069.75
2023-05-02T11:39:42.438Z,101069.00
2023-05-02T11:40:59.692Z,101062.47
2023-05-02T11:42:01.574Z,101071.66
2023-05-02T11:43:15.085Z,101077.53
2023-05-02T11:44:18.100Z,101075.31
2023-05-02T11:45:20.998Z,101078.88
2023-05-02T11:46:23.890Z,101075.31
2023-05-02T11:47:27.091Z,101082.56
2023-05-02T11:48:31.180Z,101078.66
2023-05-02T11:49:33.059Z,101083.56
2023-05-02T11:50:48.708Z,101085.50
2023-05-02T11:51:52.830Z,101087.81
2023-05-02T11:52:54.991Z,101092.03
2023-05-02T11:53:57.816Z,101090.75
2023-05-02T11:54:59.872Z,101092.03
2023-05-02T11:56:05.137Z,101091.38
2023-05-02T11:57:07.567Z,101089.91
2023-05-02T11:58:14.230Z,101099.56
2023-05-02T11:59:17.014Z,101105.50
2023-05-02T12:00:19.108Z,101104.53
2023-05-02T12:01:22.415Z,101095.91
2023-05-02T12:02:36.288Z,101094.25
2023-05-02T12:03:39.187Z,101111.41
2023-05-02T12:04:42.703Z,101116.56
2023-05-02T12:05:46.879Z,101116.47
2023-05-02T12:06:56.544Z,101117.88
2023-05-02T12:07:58.495Z,101117.09
2023-05-02T12:09:08.967Z,101121.22
2023-05-02T12:10:12.918Z,101119.50
2023-05-02T12:11:16.870Z,101123.03
2023-05-02T12:12:20.969Z,101120.34
2023-05-02T12:13:25.013Z,101125.31
2023-05-02T12:14:28.251Z,101123.59
2023-05-02T12:15:31.133Z,101126.66
2023-05-02T12:16:34.094Z,101126.00
2023-05-02T12:17:40.649Z,101130.38
2023-05-02T12:18:43.796Z,101134.72
2023-05-02T12:19:46.065Z,101136.06
2023-05-02T12:20:51.857Z,101139.56
2023-05-02T12:21:53.870Z,101139.56
2023-05-02T12:22:57.522Z,101138.28
2023-05-02T12:24:01.744Z,101147.59
2023-05-02T12:25:05.795Z,101146.38
2023-05-02T12:26:18.271Z,101148.38
2023-05-02T12:27:21.088Z,101146.19
2023-05-02T12:28:24.302Z,101147.94
2023-05-02T12:29:38.174Z,101159.63
2023-05-02T12:30:41.841Z,101158.88
2023-05-02T12:31:52.223Z,101161.31
2023-05-02T12:32:58.296Z,101154.50
2023-05-02T12:34:01.767Z,101162.94
2023-05-02T12:35:04.351Z,101158.31
2023-05-02T12:36:09.933Z,101154.75
2023-05-02T12:37:11.879Z,101162.44
2023-05-02T12:38:16.917Z,101165.13